sensor_id;sensor_type;location;lat;lon;timestamp;P1;durP1;ratioP1;P2;durP2;ratioP2
30133;SDS011;16946;49.984;10.672;2023-04-19T00:00:05;10.80;;;9.70;;
30133;SDS011;16946;49.984;10.672;2023-04-19T00:00:39;9.10;;;8.13;;
30133;SDS011;16946;49.984;10.672;2023-04-19T00:01:10;9.10;;;8.20;;
30133;SDS011;16946;49.984;10.672;2023-04-19T00:01:41;8.63;;;7.67;;
30133;SDS011;16946;49.984;10.672;2023-04-19T00:02:12;8.83;;;7.93;;
30133;SDS011;16946;49.984;10.672;2023-04-19T00:02:43;9.57;;;8.30;;
30133;SDS011;16946;49.984;10.672;2023-04-19T00:03:13;8.83;;;7.60;;
30133;SDS011;16946;49.984;10.672;2023-04-19T00:03:44;8.68;;;7.78;;
30133;SDS011;16946;49.984;10.672;2023-04-19T00:04:15;9.87;;;8.80;;
30133;SDS011;16946;49.984;10.672;2023-04-19T00:04:45;9.37;;;8.43;;
30133;SDS011;16946;49.984;10.672;2023-04-19T00:05:16;10.03;;;9.03;;
30133;SDS011;16946;49.984;10.672;2023-04-19T00:05:47;9.43;;;8.23;;
30133;SDS011;16946;49.984;10.672;2023-04-19T00:06:17;9.37;;;8.03;;
30133;SDS011;16946;49.984;10.672;2023-04-19T00:06:49;9.48;;;8.48;;
30133;SDS011;16946;49.984;10.672;2023-04-19T00:07:21;9.82;;;8.85;;
30133;SDS011;16946;49.984;10.672;2023-04-19T00:07:52;9.30;;;8.30;;
30133;SDS011;16946;49.984;10.672;2023-04-19T00:08:22;9.07;;;8.10;;
30133;SDS011;16946;49.984;10.672;2023-04-19T00:08:53;9.60;;;8.60;;
30133;SDS011;16946;49.984;10.672;2023-04-19T00:09:23;9.57;;;8.67;;
30133;SDS011;16946;49.984;10.672;2023-04-19T00:09:54;10.43;;;9.33;;
30133;SDS011;16946;49.984;10.672;2023-04-19T00:10:24;10.37;;;9.30;;
30133;SDS011;16946;49.984;10.672;2023-04-19T00:10:55;10.13;;;9.03;;
30133;SDS011;16946;49.984;10.672;2023-04-19T00:11:26;10.67;;;9.60;;
30133;SDS011;16946;49.984;10.672;2023-04-19T00:11:56;10.07;;;9.03;;
30133;SDS011;16946;49.984;10.672;2023-04-19T00:12:27;9.93;;;9.03;;
30133;SDS011;16946;49.984;10.672;2023-04-19T00:12:57;10.70;;;9.63;;
30133;SDS011;16946;49.984;10.672;2023-04-19T00:13:28;10.70;;;9.60;;
30133;SDS011;16946;49.984;10.672;2023-04-19T00:13:58;9.60;;;8.70;;
30133;SDS011;16946;49.984;10.672;2023-04-19T00:14:29;10.30;;;8.93;;
30133;SDS011;16946;49.984;10.672;2023-04-19T00:15:00;10.57;;;9.57;;
30133;SDS011;16946;49.984;10.672;2023-04-19T00:15:30;11.30;;;9.57;;
30133;SDS011;16946;49.984;10.672;2023-04-19T00:16:01;9.40;;;8.40;;
30133;SDS011;16946;49.984;10.672;2023-04-19T00:16:31;10.40;;;9.30;;
30133;SDS011;16946;49.984;10.672;2023-04-19T00:17:02;11.13;;;10.00;;
30133;SDS011;16946;49.984;10.672;2023-04-19T00:17:33;9.57;;;8.57;;
30133;SDS011;16946;49.984;10.672;2023-04-19T00:18:04;9.88;;;8.88;;
30133;SDS011;16946;49.984;10.672;2023-04-19T00:18:34;11.53;;;9.73;;
30133;SDS011;16946;49.984;10.672;2023-04-19T00:19:05;10.70;;;9.70;;
30133;SDS011;16946;49.984;10.672;2023-04-19T00:19:36;11.60;;;10.40;;
30133;SDS011;16946;49.984;10.672;2023-04-19T00:20:07;10.73;;;9.15;;
30133;SDS011;16946;49.984;10.672;2023-04-19T00:20:38;10.80;;;9.80;;
30133;SDS011;16946;49.984;10.672;2023-04-19T00:21:09;11.07;;;10.07;;
30133;SDS011;16946;49.984;10.672;2023-04-19T00:21:40;10.98;;;9.88;;
30133;SDS011;16946;49.984;10.672;2023-04-19T00:22:11;11.60;;;10.40;;
30133;SDS011;16946;49.984;10.672;2023-04-19T00:22:41;12.10;;;10.73;;
30133;SDS011;16946;49.984;10.672;2023-04-19T00:23:12;11.30;;;10.10;;
30133;SDS011;16946;49.984;10.672;2023-04-19T00:23:42;10.10;;;9.00;;
30133;SDS011;16946;49.984;10.672;2023-04-19T00:24:13;10.53;;;9.53;;
30133;SDS011;16946;49.984;10.672;2023-04-19T00:24:44;10.30;;;9.20;;
30133;SDS011;16946;49.984;10.672;2023-04-19T00:25:14;11.00;;;10.00;;
30133;SDS011;16946;49.984;10.672;2023-04-19T00:25:45;10.50;;;9.47;;
30133;SDS011;16946;49.984;10.672;2023-04-19T00:26:15;11.37;;;10.27;;
30133;SDS011;16946;49.984;10.672;2023-04-19T00:26:46;11.03;;;10.03;;
30133;SDS011;16946;49.984;10.672;2023-04-19T00:27:16;12.00;;;10.80;;
30133;SDS011;16946;49.984;10.672;2023-04-19T00:27:47;11.87;;;10.77;;
30133;SDS011;16946;49.984;10.672;2023-04-19T00:28:17;11.73;;;10.63;;
30133;SDS011;16946;49.984;10.672;2023-04-19T00:28:48;12.97;;;11.60;;
30133;SDS011;16946;49.984;10.672;2023-04-19T00:29:18;11.93;;;10.83;;
30133;SDS011;16946;49.984;10.672;2023-04-19T00:29:49;12.13;;;10.83;;
30133;SDS011;16946;49.984;10.672;2023-04-19T00:30:20;12.30;;;10.80;;
30133;SDS011;16946;49.984;10.672;2023-04-19T00:30:50;11.90;;;10.70;;
30133;SDS011;16946;49.984;10.672;2023-04-19T00:31:21;10.77;;;9.67;;
30133;SDS011;16946;49.984;10.672;2023-04-19T00:31:51;11.20;;;10.10;;
30133;SDS011;16946;49.984;10.672;2023-04-19T00:32:22;11.53;;;10.37;;
30133;SDS011;16946;49.984;10.672;2023-04-19T00:32:53;11.43;;;10.30;;
30133;SDS011;16946;49.984;10.672;2023-04-19T00:33:23;12.47;;;10.37;;
30133;SDS011;16946;49.984;10.672;2023-04-19T00:33:53;12.03;;;10.83;;
30133;SDS011;16946;49.984;10.672;2023-04-19T00:34:25;11.60;;;10.48;;
30133;SDS011;16946;49.984;10.672;2023-04-19T00:34:55;11.30;;;10.10;;
30133;SDS011;16946;49.984;10.672;2023-04-19T00:35:26;11.37;;;10.23;;
30133;SDS011;16946;49.984;10.672;2023-04-19T00:35:56;11.17;;;10.07;;
30133;SDS011;16946;49.984;10.672;2023-04-19T00:36:27;12.27;;;10.97;;
30133;SDS011;16946;49.984;10.672;2023-04-19T00:36:57;11.50;;;9.87;;
30133;SDS011;16946;49.984;10.672;2023-04-19T00:37:28;11.03;;;9.93;;
30133;SDS011;16946;49.984;10.672;2023-04-19T00:37:59;11.63;;;10.43;;
30133;SDS011;16946;49.984;10.672;2023-04-19T00:38:29;11.00;;;10.00;;
30133;SDS011;16946;49.984;10.672;2023-04-19T00:39:00;10.90;;;9.87;;
30133;SDS011;16946;49.984;10.672;2023-04-19T00:39:30;11.53;;;10.33;;
30133;SDS011;16946;49.984;10.672;2023-04-19T00:40:01;10.60;;;9.57;;
30133;SDS011;16946;49.984;10.672;2023-04-19T00:40:33;11.65;;;10.45;;
30133;SDS011;16946;49.984;10.672;2023-04-19T00:41:04;11.77;;;10.50;;
30133;SDS011;16946;49.984;10.672;2023-04-19T00:41:35;10.93;;;9.83;;
30133;SDS011;16946;49.984;10.672;2023-04-19T00:42:05;10.60;;;9.50;;
30133;SDS011;16946;49.984;10.672;2023-04-19T00:42:36;10.07;;;9.13;;
30133;SDS011;16946;49.984;10.672;2023-04-19T00:43:07;10.73;;;8.70;;
30133;SDS011;16946;49.984;10.672;2023-04-19T00:43:37;10.97;;;9.87;;
30133;SDS011;16946;49.984;10.672;2023-04-19T00:44:08;11.10;;;10.00;;
30133;SDS011;16946;49.984;10.672;2023-04-19T00:44:38;10.87;;;9.23;;
30133;SDS011;16946;49.984;10.672;2023-04-19T00:45:09;10.23;;;9.20;;
30133;SDS011;16946;49.984;10.672;2023-04-19T00:45:40;10.45;;;9.23;;
30133;SDS011;16946;49.984;10.672;2023-04-19T00:46:11;11.30;;;10.17;;
30133;SDS011;16946;49.984;10.672;2023-04-19T00:46:43;11.60;;;9.82;;
30133;SDS011;16946;49.984;10.672;2023-04-19T00:47:14;11.73;;;10.07;;
30133;SDS011;16946;49.984;10.672;2023-04-19T00:47:45;11.73;;;10.53;;
30133;SDS011;16946;49.984;10.672;2023-04-19T00:48:15;10.77;;;9.67;;
30133;SDS011;16946;49.984;10.672;2023-04-19T00:48:46;11.27;;;9.67;;
30133;SDS011;16946;49.984;10.672;2023-04-19T00:49:19;11.23;;;10.13;;
30133;SDS011;16946;49.984;10.672;2023-04-19T00:49:51;11.02;;;9.30;;
30133;SDS011;16946;49.984;10.672;2023-04-19T00:50:21;12.80;;;9.67;;
30133;SDS011;16946;49.984;10.672;2023-04-19T00:50:52;10.97;;;9.70;;
30133;SDS011;16946;49.984;10.672;2023-04-19T00:51:22;13.20;;;9.23;;
30133;SDS011;16946;49.984;10.672;2023-04-19T00:51:53;10.93;;;9.83;;
30133;SDS011;16946;49.984;10.672;2023-04-19T00:52:24;11.57;;;10.30;;
30133;SDS011;16946;49.984;10.672;2023-04-19T00:52:55;10.52;;;9.40;;
30133;SDS011;16946;49.984;10.672;2023-04-19T00:53:26;12.63;;;10.30;;
30133;SDS011;16946;49.984;10.672;2023-04-19T00:53:57;10.30;;;9.30;;
30133;SDS011;16946;49.984;10.672;2023-04-19T00:54:27;10.52;;;9.43;;
30133;SDS011;16946;49.984;10.672;2023-04-19T00:54:59;10.65;;;9.18;;
30133;SDS011;16946;49.984;10.672;2023-04-19T00:55:30;10.93;;;9.20;;
30133;SDS011;16946;49.984;10.672;2023-04-19T00:56:01;9.93;;;8.93;;
30133;SDS011;16946;49.984;10.672;2023-04-19T00:56:34;11.02;;;9.13;;
30133;SDS011;16946;49.984;10.672;2023-04-19T00:57:05;11.50;;;9.20;;
30133;SDS011;16946;49.984;10.672;2023-04-19T00:57:36;10.00;;;9.00;;
30133;SDS011;16946;49.984;10.672;2023-04-19T00:58:07;9.48;;;8.57;;
30133;SDS011;16946;49.984;10.672;2023-04-19T00:58:38;10.65;;;9.10;;
30133;SDS011;16946;49.984;10.672;2023-04-19T00:59:09;9.48;;;8.48;;
30133;SDS011;16946;49.984;10.672;2023-04-19T00:59:41;10.07;;;8.98;;
30133;SDS011;16946;49.984;10.672;2023-04-19T01:00:12;8.90;;;8.10;;
30133;SDS011;16946;49.984;10.672;2023-04-19T01:00:43;9.13;;;7.63;;
30133;SDS011;16946;49.984;10.672;2023-04-19T01:01:13;8.93;;;8.03;;
30133;SDS011;16946;49.984;10.672;2023-04-19T01:01:44;9.23;;;8.10;;
30133;SDS011;16946;49.984;10.672;2023-04-19T01:02:15;9.07;;;8.20;;
30133;SDS011;16946;49.984;10.672;2023-04-19T01:02:46;9.30;;;8.33;;
30133;SDS011;16946;49.984;10.672;2023-04-19T01:03:16;9.97;;;8.67;;
30133;SDS011;16946;49.984;10.672;2023-04-19T01:03:47;9.43;;;8.40;;
30133;SDS011;16946;49.984;10.672;2023-04-19T01:04:17;10.03;;;8.73;;
30133;SDS011;16946;49.984;10.672;2023-04-19T01:04:48;10.07;;;8.70;;
30133;SDS011;16946;49.984;10.672;2023-04-19T01:05:19;10.00;;;8.97;;
30133;SDS011;16946;49.984;10.672;2023-04-19T01:05:49;10.30;;;9.00;;
30133;SDS011;16946;49.984;10.672;2023-04-19T01:06:20;10.10;;;9.10;;
30133;SDS011;16946;49.984;10.672;2023-04-19T01:06:51;9.80;;;8.80;;
30133;SDS011;16946;49.984;10.672;2023-04-19T01:07:22;10.20;;;9.20;;
30133;SDS011;16946;49.984;10.672;2023-04-19T01:07:52;10.07;;;9.00;;
30133;SDS011;16946;49.984;10.672;2023-04-19T01:08:23;9.57;;;8.57;;
30133;SDS011;16946;49.984;10.672;2023-04-19T01:08:54;10.13;;;8.47;;
30133;SDS011;16946;49.984;10.672;2023-04-19T01:09:25;10.50;;;8.10;;
30133;SDS011;16946;49.984;10.672;2023-04-19T01:09:55;9.73;;;8.73;;
30133;SDS011;16946;49.984;10.672;2023-04-19T01:10:26;9.53;;;8.63;;
30133;SDS011;16946;49.984;10.672;2023-04-19T01:10:57;10.63;;;8.80;;
30133;SDS011;16946;49.984;10.672;2023-04-19T01:11:27;9.80;;;8.80;;
30133;SDS011;16946;49.984;10.672;2023-04-19T01:11:59;10.13;;;9.13;;
30133;SDS011;16946;49.984;10.672;2023-04-19T01:12:31;9.52;;;8.63;;
30133;SDS011;16946;49.984;10.672;2023-04-19T01:13:01;10.50;;;8.13;;
30133;SDS011;16946;49.984;10.672;2023-04-19T01:13:32;9.43;;;8.53;;
30133;SDS011;16946;49.984;10.672;2023-04-19T01:14:03;10.55;;;9.45;;
30133;SDS011;16946;49.984;10.672;2023-04-19T01:14:33;10.57;;;9.47;;
30133;SDS011;16946;49.984;10.672;2023-04-19T01:15:04;9.90;;;8.90;;
30133;SDS011;16946;49.984;10.672;2023-04-19T01:15:35;10.68;;;8.15;;
30133;SDS011;16946;49.984;10.672;2023-04-19T01:16:05;11.57;;;8.37;;
30133;SDS011;16946;49.984;10.672;2023-04-19T01:16:36;8.63;;;7.80;;
30133;SDS011;16946;49.984;10.672;2023-04-19T01:17:07;9.25;;;8.35;;
30133;SDS011;16946;49.984;10.672;2023-04-19T01:17:38;10.27;;;8.80;;
30133;SDS011;16946;49.984;10.672;2023-04-19T01:18:09;9.37;;;8.37;;
30133;SDS011;16946;49.984;10.672;2023-04-19T01:18:40;10.05;;;8.77;;
30133;SDS011;16946;49.984;10.672;2023-04-19T01:19:10;10.10;;;9.10;;
30133;SDS011;16946;49.984;10.672;2023-04-19T01:19:41;10.77;;;8.77;;
30133;SDS011;16946;49.984;10.672;2023-04-19T01:20:12;10.07;;;8.53;;
30133;SDS011;16946;49.984;10.672;2023-04-19T01:20:42;10.30;;;9.27;;
30133;SDS011;16946;49.984;10.672;2023-04-19T01:21:13;10.90;;;9.27;;
30133;SDS011;16946;49.984;10.672;2023-04-19T01:21:43;9.43;;;8.43;;
30133;SDS011;16946;49.984;10.672;2023-04-19T01:22:15;9.77;;;8.82;;
30133;SDS011;16946;49.984;10.672;2023-04-19T01:22:50;9.75;;;8.68;;
30133;SDS011;16946;49.984;10.672;2023-04-19T01:23:20;10.30;;;8.47;;
30133;SDS011;16946;49.984;10.672;2023-04-19T01:23:51;10.73;;;8.33;;
30133;SDS011;16946;49.984;10.672;2023-04-19T01:24:21;9.10;;;8.20;;
30133;SDS011;16946;49.984;10.672;2023-04-19T01:24:52;10.00;;;8.80;;
30133;SDS011;16946;49.984;10.672;2023-04-19T01:25:23;9.90;;;8.83;;
30133;SDS011;16946;49.984;10.672;2023-04-19T01:25:53;9.43;;;8.43;;
30133;SDS011;16946;49.984;10.672;2023-04-19T01:26:24;10.43;;;9.23;;
30133;SDS011;16946;49.984;10.672;2023-04-19T01:26:55;9.07;;;8.05;;
30133;SDS011;16946;49.984;10.672;2023-04-19T01:27:25;9.27;;;8.00;;
30133;SDS011;16946;49.984;10.672;2023-04-19T01:27:56;9.23;;;8.33;;
30133;SDS011;16946;49.984;10.672;2023-04-19T01:28:26;9.13;;;8.20;;
30133;SDS011;16946;49.984;10.672;2023-04-19T01:28:57;10.47;;;8.60;;
30133;SDS011;16946;49.984;10.672;2023-04-19T01:29:28;9.50;;;8.60;;
30133;SDS011;16946;49.984;10.672;2023-04-19T01:29:58;8.90;;;8.00;;
30133;SDS011;16946;49.984;10.672;2023-04-19T01:30:29;8.40;;;7.50;;
30133;SDS011;16946;49.984;10.672;2023-04-19T01:30:59;8.50;;;7.60;;
30133;SDS011;16946;49.984;10.672;2023-04-19T01:31:30;9.47;;;8.27;;
30133;SDS011;16946;49.984;10.672;2023-04-19T01:32:01;9.53;;;7.90;;
30133;SDS011;16946;49.984;10.672;2023-04-19T01:32:31;9.87;;;8.03;;
30133;SDS011;16946;49.984;10.672;2023-04-19T01:33:02;9.83;;;8.83;;
30133;SDS011;16946;49.984;10.672;2023-04-19T01:33:32;10.37;;;8.93;;
30133;SDS011;16946;49.984;10.672;2023-04-19T01:34:03;9.90;;;8.80;;
30133;SDS011;16946;49.984;10.672;2023-04-19T01:34:33;11.43;;;9.87;;
30133;SDS011;16946;49.984;10.672;2023-04-19T01:35:04;9.73;;;8.27;;
30133;SDS011;16946;49.984;10.672;2023-04-19T01:35:35;9.77;;;8.77;;
30133;SDS011;16946;49.984;10.672;2023-04-19T01:36:06;9.03;;;8.13;;
30133;SDS011;16946;49.984;10.672;2023-04-19T01:36:36;9.10;;;8.20;;
30133;SDS011;16946;49.984;10.672;2023-04-19T01:37:07;9.10;;;8.20;;
30133;SDS011;16946;49.984;10.672;2023-04-19T01:37:38;9.83;;;8.77;;
30133;SDS011;16946;49.984;10.672;2023-04-19T01:38:08;11.40;;;9.50;;
30133;SDS011;16946;49.984;10.672;2023-04-19T01:38:39;10.13;;;8.87;;
30133;SDS011;16946;49.984;10.672;2023-04-19T01:39:09;10.00;;;9.00;;
30133;SDS011;16946;49.984;10.672;2023-04-19T01:39:40;9.70;;;8.70;;
30133;SDS011;16946;49.984;10.672;2023-04-19T01:40:11;10.37;;;8.17;;
30133;SDS011;16946;49.984;10.672;2023-04-19T01:40:42;9.80;;;8.80;;
30133;SDS011;16946;49.984;10.672;2023-04-19T01:41:13;9.35;;;8.35;;
30133;SDS011;16946;49.984;10.672;2023-04-19T01:41:44;9.77;;;8.70;;
30133;SDS011;16946;49.984;10.672;2023-04-19T01:42:14;10.30;;;9.13;;
30133;SDS011;16946;49.984;10.672;2023-04-19T01:42:45;10.77;;;8.73;;
30133;SDS011;16946;49.984;10.672;2023-04-19T01:43:16;10.00;;;9.00;;
30133;SDS011;16946;49.984;10.672;2023-04-19T01:43:47;11.77;;;9.20;;
30133;SDS011;16946;49.984;10.672;2023-04-19T01:44:18;9.13;;;8.20;;
30133;SDS011;16946;49.984;10.672;2023-04-19T01:44:48;10.50;;;9.40;;
30133;SDS011;16946;49.984;10.672;2023-04-19T01:45:19;10.10;;;9.00;;
30133;SDS011;16946;49.984;10.672;2023-04-19T01:45:49;10.47;;;9.37;;
30133;SDS011;16946;49.984;10.672;2023-04-19T01:46:20;11.77;;;9.73;;
30133;SDS011;16946;49.984;10.672;2023-04-19T01:46:50;11.00;;;9.37;;
30133;SDS011;16946;49.984;10.672;2023-04-19T01:47:22;10.33;;;9.30;;
30133;SDS011;16946;49.984;10.672;2023-04-19T01:47:53;10.32;;;8.80;;
30133;SDS011;16946;49.984;10.672;2023-04-19T01:48:24;12.60;;;9.60;;
30133;SDS011;16946;49.984;10.672;2023-04-19T01:48:55;11.23;;;9.63;;
30133;SDS011;16946;49.984;10.672;2023-04-19T01:49:26;10.47;;;9.33;;
30133;SDS011;16946;49.984;10.672;2023-04-19T01:49:56;11.33;;;9.30;;
30133;SDS011;16946;49.984;10.672;2023-04-19T01:50:27;10.70;;;9.57;;
30133;SDS011;16946;49.984;10.672;2023-04-19T01:50:57;10.47;;;9.37;;
30133;SDS011;16946;49.984;10.672;2023-04-19T01:51:28;10.13;;;8.97;;
30133;SDS011;16946;49.984;10.672;2023-04-19T01:51:58;11.17;;;9.70;;
30133;SDS011;16946;49.984;10.672;2023-04-19T01:52:29;11.98;;;10.75;;
30133;SDS011;16946;49.984;10.672;2023-04-19T01:53:00;11.23;;;10.03;;
30133;SDS011;16946;49.984;10.672;2023-04-19T01:53:30;11.43;;;10.23;;
30133;SDS011;16946;49.984;10.672;2023-04-19T01:54:01;11.27;;;10.07;;
30133;SDS011;16946;49.984;10.672;2023-04-19T01:54:31;10.93;;;9.57;;
30133;SDS011;16946;49.984;10.672;2023-04-19T01:55:02;10.17;;;9.03;;
30133;SDS011;16946;49.984;10.672;2023-04-19T01:55:33;11.10;;;9.90;;
30133;SDS011;16946;49.984;10.672;2023-04-19T01:56:04;11.13;;;10.03;;
30133;SDS011;16946;49.984;10.672;2023-04-19T01:56:34;11.60;;;10.43;;
30133;SDS011;16946;49.984;10.672;2023-04-19T01:57:05;11.97;;;10.40;;
30133;SDS011;16946;49.984;10.672;2023-04-19T01:57:35;11.47;;;9.83;;
30133;SDS011;16946;49.984;10.672;2023-04-19T01:58:06;11.77;;;10.17;;
30133;SDS011;16946;49.984;10.672;2023-04-19T01:58:37;12.18;;;10.30;;
30133;SDS011;16946;49.984;10.672;2023-04-19T01:59:07;10.83;;;9.37;;
30133;SDS011;16946;49.984;10.672;2023-04-19T01:59:38;10.67;;;9.57;;
30133;SDS011;16946;49.984;10.672;2023-04-19T02:00:09;10.53;;;9.53;;
30133;SDS011;16946;49.984;10.672;2023-04-19T02:00:40;9.60;;;8.57;;
30133;SDS011;16946;49.984;10.672;2023-04-19T02:01:10;12.93;;;10.27;;
30133;SDS011;16946;49.984;10.672;2023-04-19T02:01:42;10.82;;;9.73;;
30133;SDS011;16946;49.984;10.672;2023-04-19T02:02:12;12.17;;;9.80;;
30133;SDS011;16946;49.984;10.672;2023-04-19T02:02:43;11.63;;;10.37;;
30133;SDS011;16946;49.984;10.672;2023-04-19T02:03:13;11.13;;;10.03;;
30133;SDS011;16946;49.984;10.672;2023-04-19T02:03:44;12.50;;;9.77;;
30133;SDS011;16946;49.984;10.672;2023-04-19T02:04:17;10.80;;;9.50;;
30133;SDS011;16946;49.984;10.672;2023-04-19T02:04:49;11.15;;;9.95;;
30133;SDS011;16946;49.984;10.672;2023-04-19T02:05:19;11.23;;;9.43;;
30133;SDS011;16946;49.984;10.672;2023-04-19T02:05:50;13.13;;;9.80;;
30133;SDS011;16946;49.984;10.672;2023-04-19T02:06:20;11.37;;;9.87;;
30133;SDS011;16946;49.984;10.672;2023-04-19T02:06:51;10.33;;;9.20;;
30133;SDS011;16946;49.984;10.672;2023-04-19T02:07:21;11.20;;;9.90;;
30133;SDS011;16946;49.984;10.672;2023-04-19T02:07:52;11.67;;;10.03;;
30133;SDS011;16946;49.984;10.672;2023-04-19T02:08:22;12.37;;;9.60;;
30133;SDS011;16946;49.984;10.672;2023-04-19T02:08:53;10.30;;;9.20;;
30133;SDS011;16946;49.984;10.672;2023-04-19T02:09:23;11.60;;;10.07;;
30133;SDS011;16946;49.984;10.672;2023-04-19T02:09:54;11.00;;;9.90;;
30133;SDS011;16946;49.984;10.672;2023-04-19T02:10:25;11.97;;;10.67;;
30133;SDS011;16946;49.984;10.672;2023-04-19T02:10:55;11.93;;;10.70;;
30133;SDS011;16946;49.984;10.672;2023-04-19T02:11:26;13.73;;;10.50;;
30133;SDS011;16946;49.984;10.672;2023-04-19T02:11:56;11.73;;;9.93;;
30133;SDS011;16946;49.984;10.672;2023-04-19T02:12:27;13.87;;;11.83;;
30133;SDS011;16946;49.984;10.672;2023-04-19T02:12:59;14.30;;;11.05;;
30133;SDS011;16946;49.984;10.672;2023-04-19T02:13:30;13.73;;;11.53;;
30133;SDS011;16946;49.984;10.672;2023-04-19T02:14:00;13.53;;;11.83;;
30133;SDS011;16946;49.984;10.672;2023-04-19T02:14:31;12.73;;;10.90;;
30133;SDS011;16946;49.984;10.672;2023-04-19T02:15:01;13.33;;;10.83;;
30133;SDS011;16946;49.984;10.672;2023-04-19T02:15:32;11.60;;;10.38;;
30133;SDS011;16946;49.984;10.672;2023-04-19T02:16:06;11.73;;;10.43;;
30133;SDS011;16946;49.984;10.672;2023-04-19T02:16:37;12.88;;;10.27;;
30133;SDS011;16946;49.984;10.672;2023-04-19T02:17:07;13.63;;;10.17;;
30133;SDS011;16946;49.984;10.672;2023-04-19T02:17:38;12.23;;;11.00;;
30133;SDS011;16946;49.984;10.672;2023-04-19T02:18:09;12.20;;;10.02;;
30133;SDS011;16946;49.984;10.672;2023-04-19T02:18:40;12.38;;;10.63;;
30133;SDS011;16946;49.984;10.672;2023-04-19T02:19:11;13.70;;;11.10;;
30133;SDS011;16946;49.984;10.672;2023-04-19T02:19:41;13.57;;;11.43;;
30133;SDS011;16946;49.984;10.672;2023-04-19T02:20:12;12.83;;;11.53;;
30133;SDS011;16946;49.984;10.672;2023-04-19T02:20:42;12.70;;;11.07;;
30133;SDS011;16946;49.984;10.672;2023-04-19T02:21:13;13.47;;;11.77;;
30133;SDS011;16946;49.984;10.672;2023-04-19T02:21:43;14.13;;;11.77;;
30133;SDS011;16946;49.984;10.672;2023-04-19T02:22:14;12.80;;;10.53;;
30133;SDS011;16946;49.984;10.672;2023-04-19T02:22:45;12.63;;;11.33;;
30133;SDS011;16946;49.984;10.672;2023-04-19T02:23:16;12.73;;;10.93;;
30133;SDS011;16946;49.984;10.672;2023-04-19T02:23:47;12.53;;;11.23;;
30133;SDS011;16946;49.984;10.672;2023-04-19T02:24:17;14.87;;;10.60;;
30133;SDS011;16946;49.984;10.672;2023-04-19T02:24:48;15.67;;;11.20;;
30133;SDS011;16946;49.984;10.672;2023-04-19T02:25:19;12.45;;;11.15;;
30133;SDS011;16946;49.984;10.672;2023-04-19T02:25:50;13.82;;;11.35;;
30133;SDS011;16946;49.984;10.672;2023-04-19T02:26:21;13.47;;;10.93;;
30133;SDS011;16946;49.984;10.672;2023-04-19T02:26:53;13.57;;;11.23;;
30133;SDS011;16946;49.984;10.672;2023-04-19T02:27:23;13.73;;;10.87;;
30133;SDS011;16946;49.984;10.672;2023-04-19T02:27:54;11.93;;;10.73;;
30133;SDS011;16946;49.984;10.672;2023-04-19T02:28:24;12.23;;;10.43;;
30133;SDS011;16946;49.984;10.672;2023-04-19T02:28:55;12.43;;;10.77;;
30133;SDS011;16946;49.984;10.672;2023-04-19T02:29:26;14.37;;;12.07;;
30133;SDS011;16946;49.984;10.672;2023-04-19T02:29:56;13.27;;;11.87;;
30133;SDS011;16946;49.984;10.672;2023-04-19T02:30:27;14.00;;;11.27;;
30133;SDS011;16946;49.984;10.672;2023-04-19T02:30:58;13.23;;;11.50;;
30133;SDS011;16946;49.984;10.672;2023-04-19T02:31:32;13.82;;;12.25;;
30133;SDS011;16946;49.984;10.672;2023-04-19T02:32:03;13.33;;;11.93;;
30133;SDS011;16946;49.984;10.672;2023-04-19T02:32:35;13.65;;;11.55;;
30133;SDS011;16946;49.984;10.672;2023-04-19T02:33:05;13.30;;;11.90;;
30133;SDS011;16946;49.984;10.672;2023-04-19T02:33:36;13.18;;;11.70;;
30133;SDS011;16946;49.984;10.672;2023-04-19T02:34:07;12.37;;;10.83;;
30133;SDS011;16946;49.984;10.672;2023-04-19T02:34:37;13.53;;;11.70;;
30133;SDS011;16946;49.984;10.672;2023-04-19T02:35:08;12.47;;;11.17;;
30133;SDS011;16946;49.984;10.672;2023-04-19T02:35:38;14.60;;;11.20;;
30133;SDS011;16946;49.984;10.672;2023-04-19T02:36:09;14.13;;;11.73;;
30133;SDS011;16946;49.984;10.672;2023-04-19T02:36:40;15.90;;;12.13;;
30133;SDS011;16946;49.984;10.672;2023-04-19T02:37:10;14.97;;;13.10;;
30133;SDS011;16946;49.984;10.672;2023-04-19T02:37:40;13.53;;;11.63;;
30133;SDS011;16946;49.984;10.672;2023-04-19T02:38:11;12.30;;;10.67;;
30133;SDS011;16946;49.984;10.672;2023-04-19T02:38:41;12.63;;;10.70;;
30133;SDS011;16946;49.984;10.672;2023-04-19T02:39:12;12.87;;;11.23;;
30133;SDS011;16946;49.984;10.672;2023-04-19T02:39:43;17.77;;;11.57;;
30133;SDS011;16946;49.984;10.672;2023-04-19T02:40:14;13.00;;;11.65;;
30133;SDS011;16946;49.984;10.672;2023-04-19T02:40:45;14.30;;;10.90;;
30133;SDS011;16946;49.984;10.672;2023-04-19T02:41:15;14.73;;;11.63;;
30133;SDS011;16946;49.984;10.672;2023-04-19T02:41:46;14.00;;;12.23;;
30133;SDS011;16946;49.984;10.672;2023-04-19T02:42:16;12.57;;;10.90;;
30133;SDS011;16946;49.984;10.672;2023-04-19T02:42:47;13.63;;;11.83;;
30133;SDS011;16946;49.984;10.672;2023-04-19T02:43:17;14.77;;;12.43;;
30133;SDS011;16946;49.984;10.672;2023-04-19T02:43:48;14.70;;;12.07;;
30133;SDS011;16946;49.984;10.672;2023-04-19T02:44:18;13.93;;;11.77;;
30133;SDS011;16946;49.984;10.672;2023-04-19T02:44:49;13.50;;;11.43;;
30133;SDS011;16946;49.984;10.672;2023-04-19T02:45:19;13.43;;;11.43;;
30133;SDS011;16946;49.984;10.672;2023-04-19T02:45:50;15.60;;;11.97;;
30133;SDS011;16946;49.984;10.672;2023-04-19T02:46:21;13.67;;;11.37;;
30133;SDS011;16946;49.984;10.672;2023-04-19T02:46:52;15.13;;;12.00;;
30133;SDS011;16946;49.984;10.672;2023-04-19T02:47:23;15.40;;;11.68;;
30133;SDS011;16946;49.984;10.672;2023-04-19T02:47:53;12.67;;;11.27;;
30133;SDS011;16946;49.984;10.672;2023-04-19T02:48:24;15.13;;;12.37;;
30133;SDS011;16946;49.984;10.672;2023-04-19T02:48:55;13.93;;;12.43;;
30133;SDS011;16946;49.984;10.672;2023-04-19T02:49:25;13.27;;;11.87;;
30133;SDS011;16946;49.984;10.672;2023-04-19T02:49:56;13.77;;;12.17;;
30133;SDS011;16946;49.984;10.672;2023-04-19T02:50:26;12.27;;;10.97;;
30133;SDS011;16946;49.984;10.672;2023-04-19T02:50:57;12.57;;;11.27;;
30133;SDS011;16946;49.984;10.672;2023-04-19T02:51:28;13.37;;;11.57;;
30133;SDS011;16946;49.984;10.672;2023-04-19T02:51:58;15.17;;;11.70;;
30133;SDS011;16946;49.984;10.672;2023-04-19T02:52:29;14.27;;;11.77;;
30133;SDS011;16946;49.984;10.672;2023-04-19T02:52:59;14.10;;;11.80;;
30133;SDS011;16946;49.984;10.672;2023-04-19T02:53:30;17.00;;;14.13;;
30133;SDS011;16946;49.984;10.672;2023-04-19T02:54:00;15.10;;;12.27;;
30133;SDS011;16946;49.984;10.672;2023-04-19T02:54:31;15.57;;;13.97;;
30133;SDS011;16946;49.984;10.672;2023-04-19T02:55:02;17.20;;;13.43;;
30133;SDS011;16946;49.984;10.672;2023-04-19T02:55:33;13.65;;;12.25;;
30133;SDS011;16946;49.984;10.672;2023-04-19T02:56:04;16.73;;;12.80;;
30133;SDS011;16946;49.984;10.672;2023-04-19T02:56:34;16.50;;;11.97;;
30133;SDS011;16946;49.984;10.672;2023-04-19T02:57:05;13.83;;;12.20;;
30133;SDS011;16946;49.984;10.672;2023-04-19T02:57:35;14.77;;;12.53;;
30133;SDS011;16946;49.984;10.672;2023-04-19T02:58:06;15.80;;;13.60;;
30133;SDS011;16946;49.984;10.672;2023-04-19T02:58:36;17.00;;;13.33;;
30133;SDS011;16946;49.984;10.672;2023-04-19T02:59:07;14.37;;;12.87;;